sensor_id;sensor_type;location;lat;lon;timestamp;pressure;altitude;pressure_sealevel;temperature;humidity
52535;BME280;38443;53.164;5.802;2023-05-01T00:01:02;102082.06;;;7.31;100.00
52535;BME280;38443;53.164;5.802;2023-05-01T00:03:30;102074.09;;;7.28;100.00
52535;BME280;38443;53.164;5.802;2023-05-01T00:05:59;102071.44;;;7.28;100.00
52535;BME280;38443;53.164;5.802;2023-05-01T00:08:25;102067.84;;;7.27;100.00
52535;BME280;38443;53.164;5.802;2023-05-01T00:10:51;102066.97;;;7.24;100.00
52535;BME280;38443;53.164;5.802;2023-05-01T00:13:16;102063.41;;;7.23;100.00
52535;BME280;38443;53.164;5.802;2023-05-01T00:15:46;102066.97;;;7.22;100.00
52535;BME280;38443;53.164;5.802;2023-05-01T00:18:11;102062.50;;;7.21;100.00
52535;BME280;38443;53.164;5.802;2023-05-01T00:20:37;102056.28;;;7.16;100.00
52535;BME280;38443;53.164;5.802;2023-05-01T00:23:02;102057.16;;;7.15;100.00
52535;BME280;38443;53.164;5.802;2023-05-01T00:25:27;102060.69;;;7.11;100.00
52535;BME280;38443;53.164;5.802;2023-05-01T00:27:53;102054.47;;;7.09;100.00
52535;BME280;38443;53.164;5.802;2023-05-01T00:30:18;102053.56;;;7.07;100.00
52535;BME280;38443;53.164;5.802;2023-05-01T00:32:43;102048.22;;;7.05;100.00
52535;BME280;38443;53.164;5.802;2023-05-01T00:35:09;102045.59;;;7.04;100.00
52535;BME280;38443;53.164;5.802;2023-05-01T00:37:34;102047.34;;;7.02;100.00
52535;BME280;38443;53.164;5.802;2023-05-01T00:39:59;102058.00;;;7.02;100.00
52535;BME280;38443;53.164;5.802;2023-05-01T00:42:25;102042.88;;;6.99;100.00
52535;BME280;38443;53.164;5.802;2023-05-01T00:44:50;102039.34;;;6.98;100.00
52535;BME280;38443;53.164;5.802;2023-05-01T00:47:15;102034.00;;;6.97;100.00
52535;BME280;38443;53.164;5.802;2023-05-01T00:49:41;102037.56;;;6.96;100.00
52535;BME280;38443;53.164;5.802;2023-05-01T00:52:07;102033.09;;;6.93;100.00
52535;BME280;38443;53.164;5.802;2023-05-01T00:54:35;102026.00;;;6.92;100.00
52535;BME280;38443;53.164;5.802;2023-05-01T00:57:01;102023.31;;;6.91;100.00
52535;BME280;38443;53.164;5.802;2023-05-01T00:59:26;102021.53;;;6.91;100.00
52535;BME280;38443;53.164;5.802;2023-05-01T01:01:52;102022.44;;;6.90;100.00
52535;BME280;38443;53.164;5.802;2023-05-01T01:04:17;102015.31;;;6.89;100.00
52535;BME280;38443;53.164;5.802;2023-05-01T01:06:55;102013.53;;;6.85;100.00
52535;BME280;38443;53.164;5.802;2023-05-01T01:09:50;102013.53;;;6.82;100.00
52535;BME280;38443;53.164;5.802;2023-05-01T01:15:23;102001.97;;;6.78;100.00
52535;BME280;38443;53.164;5.802;2023-05-01T01:18:05;102000.19;;;6.76;100.00
52535;BME280;38443;53.164;5.802;2023-05-01T01:20:57;101998.38;;;6.73;100.00
52535;BME280;38443;53.164;5.802;2023-05-01T01:29:38;101977.06;;;6.63;100.00
52535;BME280;38443;53.164;5.802;2023-05-01T01:35:17;101971.72;;;6.58;100.00
52535;BME280;38443;53.164;5.802;2023-05-01T01:37:50;101972.56;;;6.55;100.00
52535;BME280;38443;53.164;5.802;2023-05-01T01:40:24;101970.81;;;6.53;100.00
52535;BME280;38443;53.164;5.802;2023-05-01T01:43:05;101967.25;;;6.52;100.00
52535;BME280;38443;53.164;5.802;2023-05-01T01:45:42;101961.94;;;6.52;100.00
52535;BME280;38443;53.164;5.802;2023-05-01T01:48:13;101958.38;;;6.53;100.00
52535;BME280;38443;53.164;5.802;2023-05-01T01:50:41;101949.53;;;6.53;100.00
52535;BME280;38443;53.164;5.802;2023-05-01T01:53:08;101953.09;;;6.56;100.00
52535;BME280;38443;53.164;5.802;2023-05-01T01:55:36;101948.66;;;6.58;100.00
52535;BME280;38443;53.164;5.802;2023-05-01T01:58:04;101947.81;;;6.59;100.00
52535;BME280;38443;53.164;5.802;2023-05-01T02:00:31;101935.41;;;6.62;100.00
52535;BME280;38443;53.164;5.802;2023-05-01T02:02:59;101938.94;;;6.62;100.00
52535;BME280;38443;53.164;5.802;2023-05-01T02:05:26;101932.75;;;6.62;100.00
52535;BME280;38443;53.164;5.802;2023-05-01T02:07:53;101924.75;;;6.62;100.00
52535;BME280;38443;53.164;5.802;2023-05-01T02:10:21;101924.75;;;6.60;100.00
52535;BME280;38443;53.164;5.802;2023-05-01T02:12:48;101926.53;;;6.59;100.00
52535;BME280;38443;53.164;5.802;2023-05-01T02:15:16;101919.41;;;6.58;100.00
52535;BME280;38443;53.164;5.802;2023-05-01T02:17:43;101916.72;;;6.57;100.00
52535;BME280;38443;53.164;5.802;2023-05-01T02:20:09;101920.25;;;6.53;100.00
52535;BME280;38443;53.164;5.802;2023-05-01T02:22:38;101914.97;;;6.54;100.00
52535;BME280;38443;53.164;5.802;2023-05-01T02:25:06;101907.84;;;6.55;100.00
52535;BME280;38443;53.164;5.802;2023-05-01T02:27:39;101905.19;;;6.53;100.00
52535;BME280;38443;53.164;5.802;2023-05-01T02:30:08;101907.84;;;6.55;100.00
52535;BME280;38443;53.164;5.802;2023-05-01T02:32:33;101892.78;;;6.52;100.00
52535;BME280;38443;53.164;5.802;2023-05-01T02:34:59;101900.75;;;6.52;100.00
52535;BME280;38443;53.164;5.802;2023-05-01T02:37:25;101895.41;;;6.49;100.00
52535;BME280;38443;53.164;5.802;2023-05-01T02:39:52;101889.19;;;6.47;100.00
52535;BME280;38443;53.164;5.802;2023-05-01T02:42:20;101888.31;;;6.44;100.00
52535;BME280;38443;53.164;5.802;2023-05-01T02:44:57;101888.31;;;6.42;100.00
52535;BME280;38443;53.164;5.802;2023-05-01T02:47:26;101882.97;;;6.39;100.00
52535;BME280;38443;53.164;5.802;2023-05-01T02:49:52;101875.00;;;6.39;100.00
52535;BME280;38443;53.164;5.802;2023-05-01T02:52:19;101875.88;;;6.36;100.00
52535;BME280;38443;53.164;5.802;2023-05-01T02:54:47;101870.53;;;6.35;100.00
52535;BME280;38443;53.164;5.802;2023-05-01T02:57:12;101863.44;;;6.31;100.00
52535;BME280;38443;53.164;5.802;2023-05-01T02:59:38;101869.63;;;6.31;100.00
52535;BME280;38443;53.164;5.802;2023-05-01T03:02:05;101866.97;;;6.30;100.00
52535;BME280;38443;53.164;5.802;2023-05-01T03:04:30;101863.44;;;6.28;100.00
52535;BME280;38443;53.164;5.802;2023-05-01T03:06:56;101861.63;;;6.27;100.00
52535;BME280;38443;53.164;5.802;2023-05-01T03:09:21;101855.44;;;6.25;100.00
52535;BME280;38443;53.164;5.802;2023-05-01T03:11:47;101855.44;;;6.25;100.00
52535;BME280;38443;53.164;5.802;2023-05-01T03:14:12;101858.06;;;6.23;100.00
52535;BME280;38443;53.164;5.802;2023-05-01T03:16:38;101853.66;;;6.24;100.00
52535;BME280;38443;53.164;5.802;2023-05-01T03:19:03;101850.97;;;6.19;100.00
52535;BME280;38443;53.164;5.802;2023-05-01T03:21:30;101845.66;;;6.17;100.00
52535;BME280;38443;53.164;5.802;2023-05-01T03:23:56;101845.66;;;6.16;100.00
52535;BME280;38443;53.164;5.802;2023-05-01T03:26:21;101834.13;;;6.14;100.00
52535;BME280;38443;53.164;5.802;2023-05-01T03:28:46;101835.00;;;6.14;100.00
52535;BME280;38443;53.164;5.802;2023-05-01T03:31:12;101827.00;;;6.13;100.00
52535;BME280;38443;53.164;5.802;2023-05-01T03:33:38;101830.56;;;6.12;100.00
52535;BME280;38443;53.164;5.802;2023-05-01T03:36:04;101828.78;;;6.08;100.00
52535;BME280;38443;53.164;5.802;2023-05-01T03:38:30;101821.66;;;6.05;100.00
52535;BME280;38443;53.164;5.802;2023-05-01T03:40:56;101826.97;;;6.02;100.00
52535;BME280;38443;53.164;5.802;2023-05-01T03:43:22;101826.94;;;5.97;100.00
52535;BME280;38443;53.164;5.802;2023-05-01T03:45:48;101818.91;;;5.93;100.00
52535;BME280;38443;53.164;5.802;2023-05-01T03:48:13;101817.13;;;5.90;100.00
52535;BME280;38443;53.164;5.802;2023-05-01T03:50:38;101816.22;;;5.87;100.00
52535;BME280;38443;53.164;5.802;2023-05-01T03:53:04;101809.13;;;5.84;100.00
52535;BME280;38443;53.164;5.802;2023-05-01T03:55:29;101814.41;;;5.81;100.00
52535;BME280;38443;53.164;5.802;2023-05-01T03:57:54;101811.75;;;5.79;100.00
52535;BME280;38443;53.164;5.802;2023-05-01T04:00:19;101811.75;;;5.78;100.00
52535;BME280;38443;53.164;5.802;2023-05-01T04:02:45;101814.38;;;5.76;100.00
52535;BME280;38443;53.164;5.802;2023-05-01T04:05:10;101808.16;;;5.74;100.00
52535;BME280;38443;53.164;5.802;2023-05-01T04:07:36;101810.81;;;5.74;100.00
52535;BME280;38443;53.164;5.802;2023-05-01T04:10:01;101803.75;;;5.75;100.00
52535;BME280;38443;53.164;5.802;2023-05-01T04:12:26;101806.41;;;5.73;100.00
52535;BME280;38443;53.164;5.802;2023-05-01T04:14:52;101805.50;;;5.71;100.00
52535;BME280;38443;53.164;5.802;2023-05-01T04:17:17;101806.34;;;5.69;100.00
52535;BME280;38443;53.164;5.802;2023-05-01T04:19:42;101809.91;;;5.66;100.00
52535;BME280;38443;53.164;5.802;2023-05-01T04:22:08;101800.16;;;5.64;100.00
52535;BME280;38443;53.164;5.802;2023-05-01T04:24:33;101797.50;;;5.64;100.00
52535;BME280;38443;53.164;5.802;2023-05-01T04:26:58;101792.16;;;5.62;100.00
52535;BME280;38443;53.164;5.802;2023-05-01T04:29:24;101795.72;;;5.64;100.00
52535;BME280;38443;53.164;5.802;2023-05-01T04:31:49;101790.38;;;5.63;100.00
52535;BME280;38443;53.164;5.802;2023-05-01T04:34:14;101786.00;;;5.66;100.00
52535;BME280;38443;53.164;5.802;2023-05-01T04:36:40;101788.69;;;5.72;100.00
52535;BME280;38443;53.164;5.802;2023-05-01T04:39:05;101789.59;;;5.77;100.00
52535;BME280;38443;53.164;5.802;2023-05-01T04:41:30;101787.84;;;5.81;100.00
52535;BME280;38443;53.164;5.802;2023-05-01T04:43:56;101788.75;;;5.86;100.00
52535;BME280;38443;53.164;5.802;2023-05-01T04:46:21;101780.81;;;5.91;100.00
52535;BME280;38443;53.164;5.802;2023-05-01T04:48:46;101781.78;;;5.97;100.00
52535;BME280;38443;53.164;5.802;2023-05-01T04:51:12;101778.22;;;6.03;100.00
52535;BME280;38443;53.164;5.802;2023-05-01T04:53:37;101767.66;;;6.08;100.00
52535;BME280;38443;53.164;5.802;2023-05-01T04:56:02;101776.50;;;6.13;100.00
52535;BME280;38443;53.164;5.802;2023-05-01T04:58:28;101779.22;;;6.17;100.00
52535;BME280;38443;53.164;5.802;2023-05-01T05:00:53;101773.91;;;6.22;100.00
52535;BME280;38443;53.164;5.802;2023-05-01T05:03:18;101775.66;;;6.25;100.00
52535;BME280;38443;53.164;5.802;2023-05-01T05:05:44;101770.38;;;6.28;100.00
52535;BME280;38443;53.164;5.802;2023-05-01T05:08:10;101774.81;;;6.36;100.00
52535;BME280;38443;53.164;5.802;2023-05-01T05:10:36;101782.81;;;6.41;100.00
52535;BME280;38443;53.164;5.802;2023-05-01T05:13:01;101766.88;;;6.46;100.00
52535;BME280;38443;53.164;5.802;2023-05-01T05:15:26;101772.19;;;6.49;100.00
52535;BME280;38443;53.164;5.802;2023-05-01T05:17:51;101780.19;;;6.53;100.00
52535;BME280;38443;53.164;5.802;2023-05-01T05:20:17;101775.75;;;6.57;100.00
52535;BME280;38443;53.164;5.802;2023-05-01T05:22:42;101778.44;;;6.60;100.00
52535;BME280;38443;53.164;5.802;2023-05-01T05:25:07;101770.47;;;6.62;100.00
52535;BME280;38443;53.164;5.802;2023-05-01T05:27:33;101771.34;;;6.65;100.00
52535;BME280;38443;53.164;5.802;2023-05-01T05:30:03;101767.81;;;6.69;100.00
52535;BME280;38443;53.164;5.802;2023-05-01T05:32:30;101766.06;;;6.76;100.00
52535;BME280;38443;53.164;5.802;2023-05-01T05:34:55;101762.50;;;6.78;100.00
52535;BME280;38443;53.164;5.802;2023-05-01T05:37:20;101762.50;;;6.83;100.00
52535;BME280;38443;53.164;5.802;2023-05-01T05:39:46;101761.63;;;6.84;100.00
52535;BME280;38443;53.164;5.802;2023-05-01T05:42:11;101768.72;;;6.90;100.00
52535;BME280;38443;53.164;5.802;2023-05-01T05:44:36;101762.50;;;6.91;100.00
52535;BME280;38443;53.164;5.802;2023-05-01T05:47:03;101763.38;;;6.97;100.00
52535;BME280;38443;53.164;5.802;2023-05-01T05:49:28;101763.41;;;7.01;100.00
52535;BME280;38443;53.164;5.802;2023-05-01T05:51:53;101759.88;;;7.08;100.00
52535;BME280;38443;53.164;5.802;2023-05-01T05:54:20;101756.31;;;7.15;100.00
52535;BME280;38443;53.164;5.802;2023-05-01T05:56:45;101753.63;;;7.21;100.00
52535;BME280;38443;53.164;5.802;2023-05-01T05:59:10;101748.31;;;7.26;100.00
52535;BME280;38443;53.164;5.802;2023-05-01T06:01:35;101749.19;;;7.31;100.00
52535;BME280;38443;53.164;5.802;2023-05-01T06:04:02;101746.53;;;7.38;100.00
52535;BME280;38443;53.164;5.802;2023-05-01T06:06:27;101743.84;;;7.48;100.00
52535;BME280;38443;53.164;5.802;2023-05-01T06:08:53;101750.94;;;7.56;100.00
52535;BME280;38443;53.164;5.802;2023-05-01T06:11:18;101743.78;;;7.62;100.00
52535;BME280;38443;53.164;5.802;2023-05-01T06:13:45;101741.13;;;7.74;100.00
52535;BME280;38443;53.164;5.802;2023-05-01T06:16:11;101735.75;;;7.83;100.00
52535;BME280;38443;53.164;5.802;2023-05-01T06:18:36;101733.06;;;7.92;100.00
52535;BME280;38443;53.164;5.802;2023-05-01T06:21:02;101732.13;;;8.03;100.00
52535;BME280;38443;53.164;5.802;2023-05-01T06:23:27;101739.19;;;8.13;100.00
52535;BME280;38443;53.164;5.802;2023-05-01T06:25:52;101732.91;;;8.25;100.00
52535;BME280;38443;53.164;5.802;2023-05-01T06:28:18;101728.41;;;8.36;100.00
52535;BME280;38443;53.164;5.802;2023-05-01T06:30:43;101729.88;;;8.85;100.00
52535;BME280;38443;53.164;5.802;2023-05-01T06:33:08;101720.16;;;9.66;100.00
52535;BME280;38443;53.164;5.802;2023-05-01T06:35:37;101716.59;;;10.40;100.00
52535;BME280;38443;53.164;5.802;2023-05-01T06:38:02;101706.59;;;11.07;100.00
52535;BME280;38443;53.164;5.802;2023-05-01T06:40:28;101699.31;;;11.62;100.00
52535;BME280;38443;53.164;5.802;2023-05-01T06:42:55;101701.72;;;12.19;100.00
52535;BME280;38443;53.164;5.802;2023-05-01T06:45:21;101705.75;;;12.76;100.00
52535;BME280;38443;53.164;5.802;2023-05-01T06:47:46;101704.69;;;13.19;100.00
52535;BME280;38443;53.164;5.802;2023-05-01T06:50:11;101690.91;;;13.64;100.00
52535;BME280;38443;53.164;5.802;2023-05-01T06:52:37;101690.41;;;14.12;100.00
52535;BME280;38443;53.164;5.802;2023-05-01T06:55:02;101698.53;;;14.69;100.00
52535;BME280;38443;53.164;5.802;2023-05-01T06:57:28;101685.63;;;15.05;100.00
52535;BME280;38443;53.164;5.802;2023-05-01T06:59:53;101680.81;;;15.40;100.00
52535;BME280;38443;53.164;5.802;2023-05-01T07:02:19;101685.06;;;15.71;100.00
52535;BME280;38443;53.164;5.802;2023-05-01T07:04:45;101677.50;;;16.06;100.00
52535;BME280;38443;53.164;5.802;2023-05-01T07:07:10;101678.91;;;16.16;100.00
52535;BME280;38443;53.164;5.802;2023-05-01T07:09:36;101681.78;;;16.33;100.00
52535;BME280;38443;53.164;5.802;2023-05-01T07:12:01;101678.72;;;16.43;100.00
52535;BME280;38443;53.164;5.802;2023-05-01T07:14:27;101680.88;;;16.57;100.00
52535;BME280;38443;53.164;5.802;2023-05-01T07:16:53;101673.13;;;16.47;100.00
52535;BME280;38443;53.164;5.802;2023-05-01T07:19:18;101677.47;;;16.51;100.00
52535;BME280;38443;53.164;5.802;2023-05-01T07:21:43;101681.50;;;16.41;100.00
52535;BME280;38443;53.164;5.802;2023-05-01T07:24:09;101681.50;;;16.41;100.00
52535;BME280;38443;53.164;5.802;2023-05-01T07:26:34;101678.72;;;16.21;100.00
52535;BME280;38443;53.164;5.802;2023-05-01T07:28:59;101667.88;;;15.99;100.00
52535;BME280;38443;53.164;5.802;2023-05-01T07:31:25;101676.78;;;15.77;100.00
52535;BME280;38443;53.164;5.802;2023-05-01T07:33:50;101670.72;;;15.45;100.00
52535;BME280;38443;53.164;5.802;2023-05-01T07:36:16;101683.88;;;15.29;100.00
52535;BME280;38443;53.164;5.802;2023-05-01T07:38:44;101668.25;;;15.39;100.00
52535;BME280;38443;53.164;5.802;2023-05-01T07:41:09;101672.00;;;15.35;100.00
52535;BME280;38443;53.164;5.802;2023-05-01T07:43:35;101674.16;;;15.50;100.00
52535;BME280;38443;53.164;5.802;2023-05-01T07:46:00;101667.38;;;15.39;100.00
52535;BME280;38443;53.164;5.802;2023-05-01T07:48:26;101671.31;;;15.53;100.00
52535;BME280;38443;53.164;5.802;2023-05-01T07:50:52;101673.72;;;15.61;100.00
52535;BME280;38443;53.164;5.802;2023-05-01T07:53:18;101666.97;;;15.74;100.00
52535;BME280;38443;53.164;5.802;2023-05-01T07:55:43;101674.28;;;15.96;100.00
52535;BME280;38443;53.164;5.802;2023-05-01T07:58:09;101659.22;;;15.89;100.00
52535;BME280;38443;53.164;5.802;2023-05-01T08:00:34;101663.75;;;15.88;100.00
52535;BME280;38443;53.164;5.802;2023-05-01T08:03:00;101660.72;;;15.74;100.00
52535;BME280;38443;53.164;5.802;2023-05-01T08:05:26;101665.66;;;15.86;100.00
52535;BME280;38443;53.164;5.802;2023-05-01T08:07:51;101670.72;;;16.18;100.00
52535;BME280;38443;53.164;5.802;2023-05-01T08:10:16;101666.19;;;16.42;100.00
52535;BME280;38443;53.164;5.802;2023-05-01T08:12:41;101675.28;;;16.61;100.00
52535;BME280;38443;53.164;5.802;2023-05-01T08:15:07;101673.38;;;16.63;100.00
52535;BME280;38443;53.164;5.802;2023-05-01T08:17:34;101662.63;;;16.62;100.00
52535;BME280;38443;53.164;5.802;2023-05-01T08:20:00;101661.34;;;16.50;100.00
52535;BME280;38443;53.164;5.802;2023-05-01T08:22:26;101656.09;;;16.89;100.00
52535;BME280;38443;53.164;5.802;2023-05-01T08:24:51;101639.69;;;17.14;100.00
52535;BME280;38443;53.164;5.802;2023-05-01T08:27:17;101642.00;;;17.44;100.00
52535;BME280;38443;53.164;5.802;2023-05-01T08:29:42;101641.66;;;17.71;97.71
52535;BME280;38443;53.164;5.802;2023-05-01T08:32:08;101638.56;;;17.99;93.84
52535;BME280;38443;53.164;5.802;2023-05-01T08:34:33;101643.63;;;18.07;91.24
52535;BME280;38443;53.164;5.802;2023-05-01T08:36:58;101640.97;;;18.05;90.13
52535;BME280;38443;53.164;5.802;2023-05-01T08:39:24;101645.97;;;18.14;87.70
52535;BME280;38443;53.164;5.802;2023-05-01T08:41:50;101648.88;;;18.29;81.58
52535;BME280;38443;53.164;5.802;2023-05-01T08:44:16;101649.81;;;18.28;76.44
52535;BME280;38443;53.164;5.802;2023-05-01T08:49:26;101651.31;;;17.97;78.18
52535;BME280;38443;53.164;5.802;2023-05-01T08:51:52;101653.03;;;18.36;76.36
52535;BME280;38443;53.164;5.802;2023-05-01T08:54:21;101652.44;;;18.48;75.84
52535;BME280;38443;53.164;5.802;2023-05-01T08:56:49;101654.56;;;18.42;76.04
52535;BME280;38443;53.164;5.802;2023-05-01T08:59:15;101646.53;;;18.40;75.97
52535;BME280;38443;53.164;5.802;2023-05-01T09:01:43;101649.75;;;18.29;74.81
52535;BME280;38443;53.164;5.802;2023-05-01T09:04:10;101654.59;;;18.23;73.84
52535;BME280;38443;53.164;5.802;2023-05-01T09:06:36;101646.16;;;18.29;71.32
52535;BME280;38443;53.164;5.802;2023-05-01T09:09:01;101645.44;;;18.44;72.72
52535;BME280;38443;53.164;5.802;2023-05-01T09:11:27;101638.97;;;18.47;72.65
52535;BME280;38443;53.164;5.802;2023-05-01T09:13:53;101643.22;;;18.52;73.21
52535;BME280;38443;53.164;5.802;2023-05-01T09:16:19;101644.91;;;18.36;73.17
52535;BME280;38443;53.164;5.802;2023-05-01T09:18:45;101641.13;;;18.21;73.46
52535;BME280;38443;53.164;5.802;2023-05-01T09:21:11;101642.28;;;18.16;73.30
52535;BME280;38443;53.164;5.802;2023-05-01T09:23:36;101644.19;;;18.13;69.75
52535;BME280;38443;53.164;5.802;2023-05-01T09:26:06;101645.59;;;18.03;67.49
52535;BME280;38443;53.164;5.802;2023-05-01T09:28:41;101639.53;;;17.98;64.34
52535;BME280;38443;53.164;5.802;2023-05-01T09:31:26;101643.47;;;17.91;61.73
52535;BME280;38443;53.164;5.802;2023-05-01T09:33:57;101647.53;;;17.81;67.88
52535;BME280;38443;53.164;5.802;2023-05-01T09:36:24;101648.22;;;17.65;67.89
52535;BME280;38443;53.164;5.802;2023-05-01T09:38:50;101640.56;;;17.56;68.69
52535;BME280;38443;53.164;5.802;2023-05-01T09:41:16;101640.28;;;17.42;69.33
52535;BME280;38443;53.164;5.802;2023-05-01T09:43:51;101650.09;;;17.44;67.79
52535;BME280;38443;53.164;5.802;2023-05-01T09:46:17;101649.38;;;17.60;70.14
52535;BME280;38443;53.164;5.802;2023-05-01T09:49:00;101641.44;;;17.75;65.83
52535;BME280;38443;53.164;5.802;2023-05-01T09:51:36;101647.50;;;18.01;67.07
52535;BME280;38443;53.164;5.802;2023-05-01T09:54:03;101643.91;;;18.20;69.25
52535;BME280;38443;53.164;5.802;2023-05-01T09:56:30;101639.78;;;18.30;67.87
52535;BME280;38443;53.164;5.802;2023-05-01T09:58:58;101647.66;;;17.98;66.62
52535;BME280;38443;53.164;5.802;2023-05-01T10:01:39;101638.97;;;17.90;67.16
52535;BME280;38443;53.164;5.802;2023-05-01T10:04:05;101641.69;;;17.90;67.82
52535;BME280;38443;53.164;5.802;2023-05-01T10:06:30;101641.56;;;17.93;67.22
52535;BME280;38443;53.164;5.802;2023-05-01T10:08:56;101638.13;;;18.08;67.49
52535;BME280;38443;53.164;5.802;2023-05-01T10:11:22;101637.34;;;18.06;67.36
52535;BME280;38443;53.164;5.802;2023-05-01T10:14:07;101641.94;;;17.65;64.88
52535;BME280;38443;53.164;5.802;2023-05-01T10:16:35;101635.94;;;17.58;67.27
52535;BME280;38443;53.164;5.802;2023-05-01T10:19:02;101638.66;;;17.58;67.12
52535;BME280;38443;53.164;5.802;2023-05-01T10:21:28;101634.97;;;17.59;67.18
52535;BME280;38443;53.164;5.802;2023-05-01T10:23:54;101630.97;;;17.68;67.44
52535;BME280;38443;53.164;5.802;2023-05-01T10:26:20;101631.69;;;17.52;65.86
52535;BME280;38443;53.164;5.802;2023-05-01T10:28:47;101634.47;;;17.51;67.19
52535;BME280;38443;53.164;5.802;2023-05-01T10:31:14;101634.16;;;17.38;67.64
52535;BME280;38443;53.164;5.802;2023-05-01T10:33:42;101636.31;;;17.30;68.07
52535;BME280;38443;53.164;5.802;2023-05-01T10:36:17;101629.41;;;17.23;67.53
52535;BME280;38443;53.164;5.802;2023-05-01T10:38:44;101630.91;;;17.30;69.05
52535;BME280;38443;53.164;5.802;2023-05-01T10:41:13;101629.13;;;17.29;69.62
52535;BME280;38443;53.164;5.802;2023-05-01T10:43:39;101631.03;;;17.27;70.76
52535;BME280;38443;53.164;5.802;2023-05-01T10:53:38;101630.16;;;17.26;71.50
52535;BME280;38443;53.164;5.802;2023-05-01T10:56:04;101637.00;;;17.14;72.07
52535;BME280;38443;53.164;5.802;2023-05-01T11:01:37;101639.06;;;16.87;70.32
52535;BME280;38443;53.164;5.802;2023-05-01T11:04:52;101635.44;;;16.88;73.43
52535;BME280;38443;53.164;5.802;2023-05-01T11:09:51;101638.19;;;16.65;72.10
52535;BME280;38443;53.164;5.802;2023-05-01T11:12:54;101639.63;;;16.29;70.17
52535;BME280;38443;53.164;5.802;2023-05-01T11:15:26;101647.59;;;16.10;73.37
52535;BME280;38443;53.164;5.802;2023-05-01T11:17:51;101646.31;;;15.97;75.00
52535;BME280;38443;53.164;5.802;2023-05-01T11:22:49;101638.16;;;15.75;76.26
52535;BME280;38443;53.164;5.802;2023-05-01T11:25:20;101640.03;;;15.73;76.47
52535;BME280;38443;53.164;5.802;2023-05-01T11:27:48;101639.19;;;15.71;76.48
52535;BME280;38443;53.164;5.802;2023-05-01T11:30:14;101640.28;;;15.65;76.69
52535;BME280;38443;53.164;5.802;2023-05-01T11:32:43;101637.78;;;15.61;78.90
52535;BME280;38443;53.164;5.802;2023-05-01T11:35:17;101641.44;;;15.60;80.96
52535;BME280;38443;53.164;5.802;2023-05-01T11:37:43;101639.00;;;15.52;83.44
52535;BME280;38443;53.164;5.802;2023-05-01T11:40:28;101644.78;;;15.41;89.70
52535;BME280;38443;53.164;5.802;2023-05-01T11:43:03;101641.16;;;15.42;89.24
52535;BME280;38443;53.164;5.802;2023-05-01T11:45:29;101640.44;;;15.37;91.53
52535;BME280;38443;53.164;5.802;2023-05-01T11:47:54;101636.09;;;15.33;94.15
52535;BME280;38443;53.164;5.802;2023-05-01T11:50:20;101635.28;;;15.31;95.27
52535;BME280;38443;53.164;5.802;2023-05-01T11:52:50;101636.88;;;15.36;99.19
52535;BME280;38443;53.164;5.802;2023-05-01T11:55:20;101635.13;;;15.35;98.46
52535;BME280;38443;53.164;5.802;2023-05-01T11:57:49;101636.09;;;15.33;100.00
52535;BME280;38443;53.164;5.802;2023-05-01T12:00:25;101633.53;;;15.30;100.00
52535;BME280;38443;53.164;5.802;2023-05-01T12:02:59;101631.09;;;15.22;100.00
52535;BME280;38443;53.164;5.802;2023-05-01T12:05:25;101641.16;;;15.17;100.00
52535;BME280;38443;53.164;5.802;2023-05-01T12:10:34;101632.31;;;15.13;100.00
52535;BME280;38443;53.164;5.802;2023-05-01T12:13:01;101640.47;;;15.12;100.00
52535;BME280;38443;53.164;5.802;2023-05-01T12:15:28;101639.69;;;15.08;100.00
52535;BME280;38443;53.164;5.802;2023-05-01T12:17:55;101638.09;;;15.03;100.00
52535;BME280;38443;53.164;5.802;2023-05-01T12:20:33;101641.13;;;14.93;100.00
52535;BME280;38443;53.164;5.802;2023-05-01T12:23:01;101640.16;;;14.94;100.00
52535;BME280;38443;53.164;5.802;2023-05-01T12:25:33;101640.13;;;14.96;100.00
52535;BME280;38443;53.164;5.802;2023-05-01T12:28:01;101643.84;;;14.92;100.00
52535;BME280;38443;53.164;5.802;2023-05-01T12:30:27;101644.84;;;14.89;100.00
52535;BME280;38443;53.164;5.802;2023-05-01T12:32:57;101641.38;;;14.86;100.00
52535;BME280;38443;53.164;5.802;2023-05-01T12:35:28;101656.59;;;14.87;100.00
52535;BME280;38443;53.164;5.802;2023-05-01T12:37:54;101648.78;;;14.79;100.00
52535;BME280;38443;53.164;5.802;2023-05-01T12:40:20;101648.78;;;14.79;100.00
52535;BME280;38443;53.164;5.802;2023-05-01T12:42:54;101652.50;;;14.75;100.00
52535;BME280;38443;53.164;5.802;2023-05-01T12:45:22;101654.16;;;14.79;100.00
52535;BME280;38443;53.164;5.802;2023-05-01T12:47:47;101654.91;;;14.84;100.00
52535;BME280;38443;53.164;5.802;2023-05-01T12:50:13;101655.31;;;14.72;100.00
52535;BME280;38443;53.164;5.802;2023-05-01T12:52:38;101659.00;;;14.69;100.00
52535;BME280;38443;53.164;5.802;2023-05-01T12:55:05;101653.34;;;14.77;100.00
52535;BME280;38443;53.164;5.802;2023-05-01T12:57:31;101654.97;;;14.81;100.00
52535;BME280;38443;53.164;5.802;2023-05-01T13:00:02;101654.94;;;14.83;100.00
52535;BME280;38443;53.164;5.802;2023-05-01T13:02:32;101659.47;;;14.82;100.00
52535;BME280;38443;53.164;5.802;2023-05-01T13:05:08;101656.56;;;14.88;100.00
52535;BME280;38443;53.164;5.802;2023-05-01T13:07:35;101651.81;;;14.95;100.00
52535;BME280;38443;53.164;5.802;2023-05-01T13:10:01;101657.13;;;14.98;100.00
52535;BME280;38443;53.164;5.802;2023-05-01T13:12:28;101657.94;;;15.00;100.00
52535;BME280;38443;53.164;5.802;2023-05-01T13:14:55;101656.09;;;15.02;100.00
52535;BME280;38443;53.164;5.802;2023-05-01T13:17:28;101662.03;;;15.12;100.00
52535;BME280;38443;53.164;5.802;2023-05-01T13:19:59;101662.81;;;15.15;100.00
52535;BME280;38443;53.164;5.802;2023-05-01T13:22:31;101658.78;;;15.27;100.00